Time;durP1;ratioP1;P1;durP2;ratioP2;P2;SDS_P1;SDS_P2;PMS_P1;PMS_P2;Temp;Humidity;BMP_temperature;BMP_pressure;BME280_temperature;BME280_humidity;BME280_pressure;Samples;Min_cycle;Max_cycle;Signal;HPM_P1;HPM_P2
2022/07/19 00:01:49;;;;;;;3.70;2.08;;;;;;;;;;5040989;28;20124;-83
2022/07/19 00:04:14;;;;;;;6.03;2.33;;;;;;;;;;5042189;28;20037;-82
2022/07/19 00:06:40;;;;;;;2.65;2.08;;;;;;;;;;5045512;28;20033;-82
2022/07/19 00:09:06;;;;;;;5.47;2.35;;;;;;;;;;5038133;28;20092;-82
2022/07/19 00:11:32;;;;;;;4.20;2.53;;;;;;;;;;5051010;28;20475;-82
2022/07/19 00:13:57;;;;;;;3.40;2.05;;;;;;;;;;5048020;28;20104;-82
2022/07/19 00:16:23;;;;;;;4.35;2.30;;;;;;;;;;5048506;28;20032;-82
2022/07/19 00:18:48;;;;;;;4.45;2.40;;;;;;;;;;5045542;28;20076;-82
2022/07/19 00:21:14;;;;;;;2.95;1.85;;;;;;;;;;5042638;28;20032;-82
2022/07/19 00:23:39;;;;;;;5.20;2.42;;;;;;;;;;5050354;28;20029;-82
2022/07/19 00:26:05;;;;;;;5.47;2.40;;;;;;;;;;5047453;28;20052;-80
2022/07/19 00:28:30;;;;;;;4.03;2.30;;;;;;;;;;5063826;28;20041;-82
2022/07/19 00:30:56;;;;;;;3.08;2.08;;;;;;;;;;5066776;28;20051;-81
2022/07/19 00:33:22;;;;;;;5.22;2.35;;;;;;;;;;5070030;28;20017;-80
2022/07/19 00:35:47;;;;;;;3.92;2.70;;;;;;;;;;5066780;28;20017;-80
2022/07/19 00:38:14;;;;;;;3.75;2.60;;;;;;;;;;5065600;28;20032;-81
2022/07/19 00:40:40;;;;;;;3.85;2.72;;;;;;;;;;5060462;28;20021;-81
2022/07/19 00:43:07;;;;;;;3.78;2.50;;;;;;;;;;5063002;28;20009;-80
2022/07/19 00:45:33;;;;;;;11.45;2.80;;;;;;;;;;5062542;28;20017;-80
2022/07/19 00:47:58;;;;;;;2.55;2.33;;;;;;;;;;5053959;28;20035;-81
2022/07/19 00:50:24;;;;;;;4.05;2.20;;;;;;;;;;5042390;28;20102;-83
2022/07/19 00:52:52;;;;;;;8.15;3.10;;;;;;;;;;5034924;28;20021;-81
2022/07/19 00:55:18;;;;;;;3.35;2.20;;;;;;;;;;5039932;28;20064;-81
2022/07/19 00:57:45;;;;;;;4.28;2.45;;;;;;;;;;5045440;28;20033;-81
2022/07/19 01:00:12;;;;;;;4.72;2.35;;;;;;;;;;5042396;28;20047;-82
2022/07/19 01:02:38;;;;;;;9.80;2.35;;;;;;;;;;5034628;28;20040;-83
2022/07/19 01:05:05;;;;;;;6.00;2.50;;;;;;;;;;5043044;28;20029;-81
2022/07/19 01:07:31;;;;;;;4.72;2.72;;;;;;;;;;5045164;28;20106;-81
2022/07/19 01:09:57;;;;;;;8.82;3.20;;;;;;;;;;5051981;28;20487;-82
2022/07/19 01:12:23;;;;;;;5.80;2.50;;;;;;;;;;5050280;28;20121;-81
2022/07/19 01:14:49;;;;;;;4.07;2.40;;;;;;;;;;5050861;28;20028;-82
2022/07/19 01:17:15;;;;;;;2.83;2.33;;;;;;;;;;5049035;28;20055;-83
2022/07/19 01:19:44;;;;;;;6.03;2.60;;;;;;;;;;5052500;28;20020;-82
2022/07/19 01:22:10;;;;;;;4.25;2.47;;;;;;;;;;5049670;28;20029;-82
2022/07/19 01:24:35;;;;;;;7.03;2.70;;;;;;;;;;5054262;28;20029;-82
2022/07/19 01:27:01;;;;;;;10.55;3.10;;;;;;;;;;5050831;28;20028;-82
2022/07/19 01:29:26;;;;;;;4.35;2.75;;;;;;;;;;5047564;28;20039;-83
2022/07/19 01:31:51;;;;;;;5.75;3.15;;;;;;;;;;5055817;28;20045;-82
2022/07/19 01:34:17;;;;;;;7.10;2.95;;;;;;;;;;5046402;28;20479;-82
2022/07/19 01:36:42;;;;;;;4.57;2.90;;;;;;;;;;5046029;28;20464;-82
2022/07/19 01:39:07;;;;;;;3.47;2.53;;;;;;;;;;5053574;28;20025;-82
2022/07/19 01:41:33;;;;;;;4.00;2.72;;;;;;;;;;5046808;28;20056;-83
2022/07/19 01:43:58;;;;;;;3.72;2.65;;;;;;;;;;5042301;28;20033;-82
2022/07/19 01:46:23;;;;;;;4.97;3.13;;;;;;;;;;5039637;28;20228;-82
2022/07/19 01:48:49;;;;;;;6.10;3.20;;;;;;;;;;5046176;28;20017;-82
2022/07/19 01:51:14;;;;;;;6.53;3.08;;;;;;;;;;5051713;28;20398;-82
2022/07/19 01:53:39;;;;;;;7.25;3.05;;;;;;;;;;5039005;28;20037;-83
2022/07/19 01:56:06;;;;;;;6.15;2.85;;;;;;;;;;5038606;28;20025;-82
2022/07/19 01:58:32;;;;;;;4.20;2.63;;;;;;;;;;5051136;28;20033;-81
2022/07/19 02:00:57;;;;;;;7.72;3.17;;;;;;;;;;5057532;28;20032;-83
2022/07/19 02:03:22;;;;;;;5.35;2.60;;;;;;;;;;5049549;28;20036;-82
2022/07/19 02:05:48;;;;;;;7.00;2.80;;;;;;;;;;5049029;28;20063;-83
2022/07/19 02:08:13;;;;;;;4.68;2.90;;;;;;;;;;5046792;28;20071;-83
2022/07/19 02:10:39;;;;;;;4.80;2.85;;;;;;;;;;5051875;28;20024;-81
2022/07/19 02:13:04;;;;;;;6.25;3.22;;;;;;;;;;5043779;28;20114;-82
2022/07/19 02:15:29;;;;;;;6.07;3.22;;;;;;;;;;5036968;28;20026;-82
2022/07/19 02:17:55;;;;;;;7.22;3.30;;;;;;;;;;5050476;28;20017;-83
2022/07/19 02:20:21;;;;;;;5.97;2.88;;;;;;;;;;5041186;28;20331;-82
2022/07/19 02:22:46;;;;;;;4.97;3.40;;;;;;;;;;5054173;28;20102;-82
2022/07/19 02:25:12;;;;;;;6.30;3.22;;;;;;;;;;5045617;28;20031;-84
2022/07/19 02:27:37;;;;;;;4.50;2.90;;;;;;;;;;5050537;28;20025;-83
2022/07/19 02:30:04;;;;;;;5.50;3.05;;;;;;;;;;5051019;28;20048;-83
2022/07/19 02:32:29;;;;;;;11.98;3.53;;;;;;;;;;5041458;28;20024;-83
2022/07/19 02:34:54;;;;;;;4.43;3.28;;;;;;;;;;5054910;28;20025;-83
2022/07/19 02:37:20;;;;;;;6.45;3.30;;;;;;;;;;5045315;28;20116;-83
2022/07/19 02:39:45;;;;;;;5.63;3.00;;;;;;;;;;5052766;28;20474;-82
2022/07/19 02:42:10;;;;;;;7.18;2.97;;;;;;;;;;5048588;28;20025;-82
2022/07/19 02:44:36;;;;;;;5.53;3.08;;;;;;;;;;5049895;28;20471;-82
2022/07/19 02:47:01;;;;;;;3.47;2.60;;;;;;;;;;5056165;28;20394;-82
2022/07/19 02:49:27;;;;;;;5.22;2.95;;;;;;;;;;5052429;28;20044;-81
2022/07/19 02:51:52;;;;;;;3.83;2.92;;;;;;;;;;5038499;28;20093;-83
2022/07/19 02:54:17;;;;;;;4.80;3.10;;;;;;;;;;5047839;28;20025;-83
2022/07/19 02:56:43;;;;;;;6.75;3.63;;;;;;;;;;5049214;28;20045;-82
2022/07/19 02:59:08;;;;;;;4.63;2.67;;;;;;;;;;5039784;28;20475;-82
2022/07/19 03:01:40;;;;;;;8.45;3.15;;;;;;;;;;5040922;28;20025;-82
2022/07/19 03:04:06;;;;;;;4.85;3.42;;;;;;;;;;5059764;28;20021;-82
2022/07/19 03:06:31;;;;;;;5.75;2.67;;;;;;;;;;5045327;28;20471;-82
2022/07/19 03:08:57;;;;;;;5.43;2.83;;;;;;;;;;5055819;28;20140;-82
2022/07/19 03:11:22;;;;;;;5.38;3.13;;;;;;;;;;5048897;28;20113;-82
2022/07/19 03:13:47;;;;;;;7.45;3.33;;;;;;;;;;5051820;28;20025;-83
2022/07/19 03:16:13;;;;;;;6.70;2.90;;;;;;;;;;5049831;28;20040;-83
2022/07/19 03:18:38;;;;;;;5.60;3.40;;;;;;;;;;5051040;28;20030;-82
2022/07/19 03:21:04;;;;;;;7.30;3.63;;;;;;;;;;5045310;28;20039;-82
2022/07/19 03:23:34;;;;;;;4.93;2.65;;;;;;;;;;5056368;28;20080;-82
2022/07/19 03:25:59;;;;;;;8.07;4.00;;;;;;;;;;5049545;28;20040;-82
2022/07/19 03:28:25;;;;;;;7.13;3.00;;;;;;;;;;5044813;28;20029;-83
2022/07/19 03:30:50;;;;;;;10.73;3.33;;;;;;;;;;5053746;28;20025;-82
2022/07/19 03:33:16;;;;;;;6.68;3.30;;;;;;;;;;5043059;28;20032;-81
2022/07/19 03:35:43;;;;;;;5.32;3.22;;;;;;;;;;5052954;28;20402;-82
2022/07/19 03:38:10;;;;;;;4.75;3.15;;;;;;;;;;5041469;28;20039;-84
2022/07/19 03:40:35;;;;;;;17.48;3.45;;;;;;;;;;5051896;28;20036;-83
2022/07/19 03:43:00;;;;;;;8.32;3.72;;;;;;;;;;5043457;28;20029;-83
2022/07/19 03:45:26;;;;;;;5.07;3.38;;;;;;;;;;5053992;28;20037;-83
2022/07/19 03:47:51;;;;;;;6.82;3.08;;;;;;;;;;5053431;28;20037;-83
2022/07/19 03:50:17;;;;;;;7.95;3.53;;;;;;;;;;5046180;28;20029;-83
2022/07/19 03:52:42;;;;;;;4.60;3.00;;;;;;;;;;5055660;28;20036;-82
2022/07/19 03:55:08;;;;;;;4.10;3.35;;;;;;;;;;5056930;28;20025;-83
2022/07/19 03:57:33;;;;;;;8.05;3.22;;;;;;;;;;5056094;28;20033;-82
2022/07/19 03:59:58;;;;;;;9.35;3.50;;;;;;;;;;5057528;28;20029;-82
2022/07/19 04:02:24;;;;;;;5.53;3.05;;;;;;;;;;5056303;28;20036;-82
2022/07/19 04:04:49;;;;;;;6.53;3.00;;;;;;;;;;5044435;28;20028;-83
2022/07/19 04:07:15;;;;;;;7.93;3.70;;;;;;;;;;5049245;28;20028;-82
2022/07/19 04:09:40;;;;;;;6.70;3.72;;;;;;;;;;5056136;28;20591;-83
2022/07/19 04:12:05;;;;;;;4.85;3.33;;;;;;;;;;5039780;28;20034;-82
2022/07/19 04:14:31;;;;;;;6.00;3.70;;;;;;;;;;5049772;28;20092;-82
2022/07/19 04:16:56;;;;;;;4.80;3.30;;;;;;;;;;5056612;28;20021;-82
2022/07/19 04:19:21;;;;;;;6.28;3.55;;;;;;;;;;5049185;28;20028;-82
2022/07/19 04:21:47;;;;;;;7.68;3.80;;;;;;;;;;5057512;28;20663;-84
2022/07/19 04:24:12;;;;;;;7.80;3.38;;;;;;;;;;5057209;28;20025;-83
2022/07/19 04:26:38;;;;;;;6.07;3.00;;;;;;;;;;5058489;28;20386;-83
2022/07/19 04:29:03;;;;;;;8.65;3.70;;;;;;;;;;5058728;28;20021;-82
2022/07/19 04:31:29;;;;;;;7.00;3.90;;;;;;;;;;5055089;28;20029;-82
2022/07/19 04:33:54;;;;;;;5.80;3.33;;;;;;;;;;5055136;28;20059;-83
2022/07/19 04:36:19;;;;;;;5.22;3.20;;;;;;;;;;5049134;28;20029;-82
2022/07/19 04:38:44;;;;;;;8.27;3.58;;;;;;;;;;5053291;28;20021;-83
2022/07/19 04:41:10;;;;;;;7.55;4.03;;;;;;;;;;5053966;28;20039;-81
2022/07/19 04:43:35;;;;;;;10.48;3.50;;;;;;;;;;5054826;28;20025;-81
2022/07/19 04:46:01;;;;;;;8.13;3.45;;;;;;;;;;5049308;28;20021;-81
2022/07/19 04:48:27;;;;;;;6.32;3.08;;;;;;;;;;5046174;28;20064;-82
2022/07/19 04:50:52;;;;;;;7.78;3.15;;;;;;;;;;5056390;28;20021;-82
2022/07/19 04:53:17;;;;;;;9.68;3.50;;;;;;;;;;5054817;28;20044;-81
2022/07/19 04:55:43;;;;;;;8.00;3.47;;;;;;;;;;5055686;28;20047;-81
2022/07/19 04:58:08;;;;;;;9.35;3.38;;;;;;;;;;5048972;28;20025;-82
2022/07/19 05:00:34;;;;;;;8.50;3.65;;;;;;;;;;5052926;28;20112;-82
2022/07/19 05:02:59;;;;;;;9.80;3.78;;;;;;;;;;5047835;28;20103;-82
2022/07/19 05:05:25;;;;;;;6.82;3.05;;;;;;;;;;5051405;28;20020;-82
2022/07/19 05:07:50;;;;;;;6.40;3.80;;;;;;;;;;5040205;28;20054;-81
2022/07/19 05:10:16;;;;;;;11.88;3.75;;;;;;;;;;5054971;28;21362;-82
2022/07/19 05:12:42;;;;;;;7.65;3.80;;;;;;;;;;5054881;28;20044;-82
2022/07/19 05:15:08;;;;;;;4.60;3.22;;;;;;;;;;5045697;28;20017;-82
2022/07/19 05:17:33;;;;;;;4.47;3.22;;;;;;;;;;5048473;28;20031;-82
2022/07/19 05:19:59;;;;;;;5.18;3.35;;;;;;;;;;5049136;28;20402;-82
2022/07/19 05:22:25;;;;;;;5.32;3.17;;;;;;;;;;5056148;28;20033;-82
2022/07/19 05:24:59;;;;;;;12.32;3.38;;;;;;;;;;5053604;28;20471;-83
2022/07/19 05:27:25;;;;;;;6.13;3.75;;;;;;;;;;5039415;28;20491;-81
2022/07/19 05:29:50;;;;;;;7.93;3.13;;;;;;;;;;5044640;28;20678;-81
2022/07/19 05:32:16;;;;;;;6.78;3.20;;;;;;;;;;5071613;28;20113;-81
2022/07/19 05:34:41;;;;;;;11.35;3.67;;;;;;;;;;5047021;28;20086;-81
2022/07/19 05:37:07;;;;;;;6.97;3.00;;;;;;;;;;5039768;28;20087;-81
2022/07/19 05:39:32;;;;;;;7.13;3.08;;;;;;;;;;5044589;28;20027;-81
2022/07/19 05:41:58;;;;;;;4.97;2.85;;;;;;;;;;5053144;28;20360;-81
2022/07/19 05:44:23;;;;;;;6.43;3.20;;;;;;;;;;5050499;28;20024;-80
2022/07/19 05:46:48;;;;;;;6.78;3.20;;;;;;;;;;5040289;28;20079;-81
2022/07/19 05:49:14;;;;;;;6.03;3.08;;;;;;;;;;5047296;28;20028;-80
2022/07/19 05:51:40;;;;;;;4.47;2.97;;;;;;;;;;5055179;28;20024;-81
2022/07/19 05:54:06;;;;;;;8.07;3.38;;;;;;;;;;5054102;28;20024;-82
2022/07/19 05:56:31;;;;;;;6.55;3.55;;;;;;;;;;5055519;28;20057;-81
2022/07/19 05:58:57;;;;;;;8.15;3.13;;;;;;;;;;5053482;28;20042;-81
2022/07/19 06:01:22;;;;;;;5.13;2.78;;;;;;;;;;5051267;28;20070;-81
2022/07/19 06:03:56;;;;;;;6.70;2.80;;;;;;;;;;5048792;28;20021;-81
2022/07/19 06:06:23;;;;;;;8.13;3.20;;;;;;;;;;5046120;28;20048;-81
2022/07/19 06:08:49;;;;;;;7.32;2.83;;;;;;;;;;5054351;28;20033;-81
2022/07/19 06:11:15;;;;;;;4.75;2.80;;;;;;;;;;5054069;28;20035;-81
2022/07/19 06:13:42;;;;;;;8.32;2.88;;;;;;;;;;5045867;28;20024;-81
2022/07/19 06:16:07;;;;;;;3.85;2.60;;;;;;;;;;5053980;28;20021;-81
2022/07/19 06:18:36;;;;;;;6.45;3.03;;;;;;;;;;5052286;28;20057;-81
2022/07/19 06:21:08;;;;;;;10.65;2.97;;;;;;;;;;5039909;28;20021;-80
2022/07/19 06:23:33;;;;;;;5.55;2.83;;;;;;;;;;5054384;28;20081;-82
2022/07/19 06:25:59;;;;;;;7.78;2.83;;;;;;;;;;5054225;28;20544;-81
2022/07/19 06:28:25;;;;;;;5.70;2.67;;;;;;;;;;5054202;28;20103;-81
2022/07/19 06:30:50;;;;;;;7.45;2.90;;;;;;;;;;5051242;28;20632;-81
2022/07/19 06:33:16;;;;;;;4.35;2.58;;;;;;;;;;5038763;28;20086;-82
2022/07/19 06:35:41;;;;;;;10.73;3.00;;;;;;;;;;5044905;28;20378;-82
2022/07/19 06:38:07;;;;;;;9.95;4.88;;;;;;;;;;5046994;28;20025;-82
2022/07/19 06:40:32;;;;;;;8.50;3.00;;;;;;;;;;5043920;28;20077;-82
2022/07/19 06:42:58;;;;;;;6.00;2.88;;;;;;;;;;5040582;28;20099;-82
2022/07/19 06:45:23;;;;;;;7.82;2.47;;;;;;;;;;5046092;28;20048;-82
2022/07/19 06:47:51;;;;;;;4.07;1.98;;;;;;;;;;5051359;28;20402;-81
2022/07/19 06:50:18;;;;;;;3.95;2.45;;;;;;;;;;5054565;28;20049;-81
2022/07/19 06:52:43;;;;;;;8.18;3.30;;;;;;;;;;5046426;28;20033;-81
2022/07/19 06:55:09;;;;;;;6.75;2.90;;;;;;;;;;5052235;28;20074;-81
2022/07/19 06:57:34;;;;;;;9.43;2.35;;;;;;;;;;5048033;28;20024;-80
2022/07/19 07:00:00;;;;;;;8.63;2.60;;;;;;;;;;5043660;28;20081;-80
2022/07/19 07:02:25;;;;;;;7.88;2.88;;;;;;;;;;5047994;28;20033;-81
2022/07/19 07:04:50;;;;;;;4.70;2.67;;;;;;;;;;5044128;28;20035;-81
2022/07/19 07:07:16;;;;;;;7.93;2.60;;;;;;;;;;5040850;28;20107;-81
2022/07/19 07:09:42;;;;;;;5.05;2.50;;;;;;;;;;5051778;28;20096;-81
2022/07/19 07:12:08;;;;;;;5.57;2.72;;;;;;;;;;5045171;28;20040;-82
2022/07/19 07:14:34;;;;;;;7.75;2.90;;;;;;;;;;5045224;28;20630;-81
2022/07/19 07:16:59;;;;;;;4.07;2.35;;;;;;;;;;5044604;28;20106;-82
2022/07/19 07:19:25;;;;;;;8.07;3.10;;;;;;;;;;5053319;28;20087;-82
2022/07/19 07:21:50;;;;;;;9.57;2.42;;;;;;;;;;5044936;28;20111;-80
2022/07/19 07:24:15;;;;;;;4.25;2.60;;;;;;;;;;5050444;28;20037;-81
2022/07/19 07:26:41;;;;;;;4.10;2.25;;;;;;;;;;5053392;28;20075;-82
2022/07/19 07:29:06;;;;;;;7.25;2.30;;;;;;;;;;5054595;28;20017;-82
2022/07/19 07:31:32;;;;;;;4.82;2.53;;;;;;;;;;5053542;28;20024;-81
2022/07/19 07:33:57;;;;;;;7.15;2.30;;;;;;;;;;5047369;28;20404;-81
2022/07/19 07:36:22;;;;;;;4.93;2.42;;;;;;;;;;5038294;28;20030;-81
2022/07/19 07:38:48;;;;;;;4.03;2.53;;;;;;;;;;5037885;28;20028;-82
2022/07/19 07:41:13;;;;;;;3.63;2.42;;;;;;;;;;5051013;28;20030;-82
2022/07/19 07:43:38;;;;;;;3.50;2.15;;;;;;;;;;5056749;28;20471;-81
2022/07/19 07:46:04;;;;;;;3.70;2.15;;;;;;;;;;5057243;28;20065;-81
2022/07/19 07:48:29;;;;;;;5.90;2.10;;;;;;;;;;5047922;28;20045;-82
2022/07/19 07:50:56;;;;;;;7.93;2.10;;;;;;;;;;5043949;28;20056;-80
2022/07/19 07:53:21;;;;;;;4.57;2.00;;;;;;;;;;5060446;28;20407;-81
2022/07/19 07:55:46;;;;;;;5.57;2.17;;;;;;;;;;5053149;28;20029;-80
2022/07/19 07:58:12;;;;;;;2.70;2.08;;;;;;;;;;5052324;28;20025;-81
2022/07/19 08:00:39;;;;;;;2.85;2.05;;;;;;;;;;5051243;28;20032;-82
2022/07/19 08:03:04;;;;;;;2.90;1.85;;;;;;;;;;5043334;28;20044;-82
2022/07/19 08:05:30;;;;;;;4.50;1.75;;;;;;;;;;5056765;28;20024;-81
2022/07/19 08:07:56;;;;;;;2.42;1.80;;;;;;;;;;5037857;28;20025;-81
2022/07/19 08:10:24;;;;;;;1.95;1.70;;;;;;;;;;5047013;28;21745;-81
2022/07/19 08:12:49;;;;;;;3.15;1.75;;;;;;;;;;5037797;28;20053;-81
2022/07/19 08:15:15;;;;;;;3.72;2.08;;;;;;;;;;5055781;28;20060;-81
2022/07/19 08:17:40;;;;;;;4.72;1.70;;;;;;;;;;5048840;28;20029;-81
2022/07/19 08:20:06;;;;;;;4.28;2.00;;;;;;;;;;5037956;28;20082;-82
2022/07/19 08:22:32;;;;;;;3.67;1.70;;;;;;;;;;5056083;28;20054;-81
2022/07/19 08:24:57;;;;;;;2.22;1.52;;;;;;;;;;5057099;28;20103;-81
2022/07/19 08:27:23;;;;;;;5.82;2.00;;;;;;;;;;5047289;28;20025;-80
2022/07/19 08:29:48;;;;;;;3.72;1.77;;;;;;;;;;5053508;28;20105;-81
2022/07/19 08:32:14;;;;;;;3.88;1.77;;;;;;;;;;5045922;28;20025;-84
2022/07/19 08:34:40;;;;;;;2.80;1.92;;;;;;;;;;5048369;28;20025;-82
2022/07/19 08:37:05;;;;;;;2.60;1.80;;;;;;;;;;5049784;28;20086;-82
2022/07/19 08:39:30;;;;;;;3.67;1.88;;;;;;;;;;5057581;28;20052;-82
2022/07/19 08:41:56;;;;;;;2.67;1.88;;;;;;;;;;5051423;28;20021;-83
2022/07/19 08:44:22;;;;;;;8.73;1.77;;;;;;;;;;5049111;28;20553;-85
2022/07/19 08:46:48;;;;;;;2.38;1.58;;;;;;;;;;5047183;28;20013;-83
2022/07/19 08:49:14;;;;;;;5.80;1.50;;;;;;;;;;5046428;28;20025;-84
2022/07/19 08:51:42;;;;;;;2.00;1.80;;;;;;;;;;5049117;28;20036;-84
2022/07/19 08:54:07;;;;;;;3.92;1.80;;;;;;;;;;5045932;28;20019;-84
2022/07/19 08:59:16;;;;;;;2.35;1.50;;;;;;;;;;5047618;28;20147;-84
2022/07/19 09:01:42;;;;;;;1.63;1.50;;;;;;;;;;5044960;28;20085;-85
2022/07/19 09:04:13;;;;;;;4.30;1.67;;;;;;;;;;5051577;28;20025;-83
2022/07/19 09:06:44;;;;;;;4.22;1.60;;;;;;;;;;5046494;28;20027;-83
2022/07/19 09:09:11;;;;;;;3.80;1.90;;;;;;;;;;5039404;28;20030;-83
2022/07/19 09:11:40;;;;;;;2.42;1.65;;;;;;;;;;5052805;28;20044;-84
2022/07/19 09:14:08;;;;;;;2.85;1.40;;;;;;;;;;5048350;28;20066;-84
2022/07/19 09:16:53;;;;;;;2.00;1.50;;;;;;;;;;5048189;28;20029;-83
2022/07/19 09:19:19;;;;;;;2.97;1.55;;;;;;;;;;5055736;28;20104;-84
2022/07/19 09:21:54;;;;;;;2.28;1.63;;;;;;;;;;5054255;28;20029;-84
2022/07/19 09:24:21;;;;;;;1.55;1.45;;;;;;;;;;5048757;28;20482;-83
2022/07/19 09:27:01;;;;;;;3.55;1.67;;;;;;;;;;5043421;28;20103;-83
2022/07/19 09:29:28;;;;;;;2.33;1.63;;;;;;;;;;5055278;28;20028;-84
2022/07/19 09:32:15;;;;;;;8.93;1.75;;;;;;;;;;5054500;28;20017;-83
2022/07/19 09:34:53;;;;;;;2.55;1.55;;;;;;;;;;5050537;28;20021;-83
2022/07/19 09:37:22;;;;;;;2.65;1.80;;;;;;;;;;5051384;28;20040;-83
2022/07/19 09:39:50;;;;;;;2.15;1.75;;;;;;;;;;5046494;28;20024;-83
2022/07/19 09:42:21;;;;;;;3.80;2.03;;;;;;;;;;5055391;28;20089;-83
2022/07/19 09:44:57;;;;;;;3.85;2.30;;;;;;;;;;5050066;28;20040;-83
2022/07/19 09:47:30;;;;;;;6.07;1.40;;;;;;;;;;5049081;28;20459;-83
2022/07/19 09:49:56;;;;;;;5.22;1.58;;;;;;;;;;5050191;28;20029;-83
2022/07/19 09:52:21;;;;;;;5.55;1.80;;;;;;;;;;5047689;28;20032;-83
2022/07/19 09:54:47;;;;;;;2.88;1.80;;;;;;;;;;5050329;28;20029;-85
2022/07/19 09:57:14;;;;;;;2.08;1.42;;;;;;;;;;5045843;28;20044;-84
2022/07/19 09:59:49;;;;;;;4.90;2.45;;;;;;;;;;5049692;28;20043;-84
2022/07/19 10:02:18;;;;;;;2.17;1.52;;;;;;;;;;5048615;28;20104;-84
2022/07/19 10:04:44;;;;;;;3.58;1.92;;;;;;;;;;5053384;28;20045;-84
2022/07/19 10:07:12;;;;;;;5.45;1.52;;;;;;;;;;5051118;28;20123;-86
2022/07/19 10:09:38;;;;;;;2.60;1.70;;;;;;;;;;5051014;28;20534;-85
2022/07/19 10:12:03;;;;;;;1.98;1.70;;;;;;;;;;5066070;28;20071;-84
2022/07/19 10:14:29;;;;;;;5.70;2.25;;;;;;;;;;5047378;28;20067;-82
2022/07/19 10:16:57;;;;;;;3.83;1.90;;;;;;;;;;5050483;28;20025;-83
2022/07/19 10:19:33;;;;;;;3.78;2.00;;;;;;;;;;5056303;28;20024;-82
2022/07/19 10:22:02;;;;;;;6.32;1.92;;;;;;;;;;5057940;28;20021;-84
2022/07/19 10:24:49;;;;;;;4.88;1.60;;;;;;;;;;5044490;28;20020;-85
2022/07/19 10:27:17;;;;;;;7.35;1.80;;;;;;;;;;5046391;28;20075;-84
2022/07/19 10:29:43;;;;;;;4.93;2.03;;;;;;;;;;5050447;28;20025;-84
2022/07/19 10:32:13;;;;;;;4.30;1.75;;;;;;;;;;5059154;28;20162;-83
2022/07/19 10:34:40;;;;;;;5.20;2.25;;;;;;;;;;5050975;28;20030;-82
2022/07/19 10:37:06;;;;;;;5.28;3.15;;;;;;;;;;5059114;28;20071;-84
2022/07/19 10:39:41;;;;;;;3.95;2.03;;;;;;;;;;5058078;28;20017;-84
2022/07/19 10:42:11;;;;;;;2.20;1.80;;;;;;;;;;5058017;28;20029;-82
2022/07/19 10:44:54;;;;;;;4.30;1.80;;;;;;;;;;5056153;28;20037;-85
2022/07/19 10:47:21;;;;;;;3.42;1.80;;;;;;;;;;5067603;28;20092;-84
2022/07/19 10:49:48;;;;;;;7.22;1.90;;;;;;;;;;5061908;28;20077;-84
2022/07/19 10:52:28;;;;;;;5.72;1.88;;;;;;;;;;5067591;28;20029;-83
2022/07/19 10:55:15;;;;;;;1.70;1.60;;;;;;;;;;5073487;28;20017;-83
2022/07/19 10:57:42;;;;;;;4.10;1.88;;;;;;;;;;5037121;28;20040;-85
2022/07/19 11:00:27;;;;;;;5.18;2.20;;;;;;;;;;5078918;22;20454;-82
2022/07/19 11:03:22;;;;;;;2.85;1.98;;;;;;;;;;5067028;28;20028;-83
2022/07/19 11:05:59;;;;;;;2.80;1.60;;;;;;;;;;5066245;28;20025;-84
2022/07/19 11:08:31;;;;;;;3.67;1.80;;;;;;;;;;5068670;28;20060;-84
2022/07/19 11:11:06;;;;;;;3.47;2.00;;;;;;;;;;5064237;28;20024;-83
2022/07/19 11:13:33;;;;;;;3.72;1.98;;;;;;;;;;5065604;28;20024;-84
2022/07/19 11:15:58;;;;;;;3.00;1.83;;;;;;;;;;5069660;28;20028;-84
2022/07/19 11:18:24;;;;;;;2.10;1.90;;;;;;;;;;5062550;28;20132;-83
2022/07/19 11:20:49;;;;;;;5.47;1.98;;;;;;;;;;5073425;28;20020;-83
2022/07/19 11:23:20;;;;;;;2.83;1.90;;;;;;;;;;5067294;28;20546;-84
2022/07/19 11:25:46;;;;;;;2.10;1.95;;;;;;;;;;5065059;28;20123;-84
2022/07/19 11:28:24;;;;;;;3.65;1.98;;;;;;;;;;5075456;28;20135;-84
2022/07/19 11:30:51;;;;;;;3.53;1.80;;;;;;;;;;5059381;28;20017;-85
2022/07/19 11:33:19;;;;;;;4.60;1.95;;;;;;;;;;5068301;28;20036;-83
2022/07/19 11:35:58;;;;;;;2.95;2.08;;;;;;;;;;5061035;28;20032;-84
2022/07/19 11:38:37;;;;;;;9.55;2.17;;;;;;;;;;5068207;28;20582;-84
2022/07/19 11:41:02;;;;;;;2.70;1.80;;;;;;;;;;5071014;28;20024;-85
2022/07/19 11:43:28;;;;;;;5.60;1.90;;;;;;;;;;5064741;28;20021;-84
2022/07/19 11:45:54;;;;;;;3.13;2.10;;;;;;;;;;5070084;28;20024;-85
2022/07/19 11:48:28;;;;;;;3.80;2.05;;;;;;;;;;5066053;28;20969;-85
2022/07/19 11:51:02;;;;;;;4.63;1.65;;;;;;;;;;5058280;28;20090;-83
2022/07/19 11:53:28;;;;;;;2.67;2.08;;;;;;;;;;5067598;28;20454;-83
2022/07/19 11:55:53;;;;;;;2.17;1.60;;;;;;;;;;5071262;28;20021;-84
2022/07/19 11:58:19;;;;;;;1.92;1.67;;;;;;;;;;5062944;28;20025;-84
2022/07/19 12:00:45;;;;;;;4.32;1.80;;;;;;;;;;5060561;28;20024;-83
2022/07/19 12:03:15;;;;;;;2.95;2.05;;;;;;;;;;5061605;28;20480;-84
2022/07/19 12:05:54;;;;;;;3.70;2.17;;;;;;;;;;5060286;28;20073;-84
2022/07/19 12:08:20;;;;;;;4.05;1.60;;;;;;;;;;5068615;28;20560;-84
2022/07/19 12:10:51;;;;;;;5.47;1.67;;;;;;;;;;5065139;28;20020;-84
2022/07/19 12:13:33;;;;;;;3.35;1.75;;;;;;;;;;5065927;28;20539;-84
2022/07/19 12:16:06;;;;;;;3.90;2.13;;;;;;;;;;5061349;28;20040;-84
2022/07/19 12:18:50;;;;;;;4.10;2.10;;;;;;;;;;5069613;28;20077;-84
2022/07/19 12:21:16;;;;;;;2.60;1.70;;;;;;;;;;5063769;28;20453;-84
2022/07/19 12:23:42;;;;;;;2.90;1.60;;;;;;;;;;5057210;28;20028;-84
2022/07/19 12:26:08;;;;;;;3.75;2.03;;;;;;;;;;5066593;28;20082;-83
2022/07/19 12:28:33;;;;;;;3.00;1.80;;;;;;;;;;5074383;28;20024;-83
2022/07/19 12:31:06;;;;;;;2.00;1.80;;;;;;;;;;5088243;28;20060;-83
2022/07/19 12:33:32;;;;;;;3.28;1.80;;;;;;;;;;5094375;28;20016;-83
2022/07/19 12:35:57;;;;;;;2.47;1.80;;;;;;;;;;5092339;28;20032;-83
2022/07/19 12:38:41;;;;;;;3.70;2.10;;;;;;;;;;5070278;28;20025;-83
2022/07/19 12:41:08;;;;;;;6.72;2.55;;;;;;;;;;5076757;28;20486;-84
2022/07/19 12:43:36;;;;;;;4.13;1.90;;;;;;;;;;5068201;28;20031;-84
2022/07/19 12:46:02;;;;;;;4.63;2.15;;;;;;;;;;5072613;28;20051;-84
2022/07/19 12:48:28;;;;;;;2.40;1.67;;;;;;;;;;5073056;28;20358;-84
2022/07/19 12:50:54;;;;;;;4.05;1.73;;;;;;;;;;5073213;28;20092;-85
2022/07/19 12:53:20;;;;;;;11.88;2.50;;;;;;;;;;5076293;28;20024;-83
2022/07/19 12:55:47;;;;;;;4.15;2.15;;;;;;;;;;5066373;28;20107;-84
2022/07/19 13:01:01;;;;;;;4.07;1.90;;;;;;;;;;5072593;28;20040;-83
2022/07/19 13:03:26;;;;;;;6.57;2.00;;;;;;;;;;5076003;28;20016;-84
2022/07/19 13:05:51;;;;;;;4.45;1.77;;;;;;;;;;5072874;28;20078;-83
2022/07/19 13:08:17;;;;;;;2.20;1.88;;;;;;;;;;5070997;28;20097;-84
2022/07/19 13:10:42;;;;;;;7.22;2.13;;;;;;;;;;5067948;28;20024;-83
2022/07/19 13:13:09;;;;;;;4.10;1.80;;;;;;;;;;5070478;28;20142;-83
2022/07/19 13:15:35;;;;;;;3.45;1.70;;;;;;;;;;5073332;28;20033;-84
2022/07/19 13:18:00;;;;;;;4.22;1.95;;;;;;;;;;5070940;28;20427;-84
2022/07/19 13:20:26;;;;;;;2.63;1.80;;;;;;;;;;5064500;28;20021;-84
2022/07/19 13:22:51;;;;;;;4.45;2.17;;;;;;;;;;5062693;28;20040;-84
2022/07/19 13:25:17;;;;;;;4.47;1.88;;;;;;;;;;5065415;28;20424;-83
2022/07/19 13:27:42;;;;;;;5.00;1.70;;;;;;;;;;5070744;28;20024;-83
2022/07/19 13:30:09;;;;;;;5.43;2.58;;;;;;;;;;5061860;28;20052;-84
2022/07/19 13:32:34;;;;;;;3.08;1.90;;;;;;;;;;5062640;28;20088;-83
2022/07/19 13:34:59;;;;;;;4.43;2.10;;;;;;;;;;5063541;28;20055;-83
2022/07/19 13:37:25;;;;;;;3.08;2.20;;;;;;;;;;5068809;28;20037;-83
2022/07/19 13:39:50;;;;;;;4.00;2.25;;;;;;;;;;5067196;28;20020;-85
2022/07/19 13:42:15;;;;;;;3.63;2.40;;;;;;;;;;5060876;28;20078;-83
2022/07/19 13:44:41;;;;;;;4.65;2.28;;;;;;;;;;5054703;28;20025;-83
2022/07/19 13:47:06;;;;;;;4.60;2.17;;;;;;;;;;5064396;28;20052;-83
2022/07/19 13:49:31;;;;;;;5.88;2.10;;;;;;;;;;5062603;28;20363;-83
2022/07/19 13:51:57;;;;;;;2.75;2.05;;;;;;;;;;5065158;28;20082;-82
2022/07/19 13:54:22;;;;;;;6.05;2.03;;;;;;;;;;5065101;28;20051;-82
2022/07/19 13:56:48;;;;;;;3.17;2.10;;;;;;;;;;5066812;28;20047;-83
2022/07/19 13:59:13;;;;;;;4.57;2.17;;;;;;;;;;5071341;28;20028;-83
2022/07/19 14:01:39;;;;;;;5.03;2.45;;;;;;;;;;5065150;28;20078;-83
2022/07/19 14:04:04;;;;;;;4.18;1.98;;;;;;;;;;5072450;28;20024;-83
2022/07/19 14:06:30;;;;;;;4.15;2.20;;;;;;;;;;5085245;28;20040;-83
2022/07/19 14:08:55;;;;;;;4.13;2.17;;;;;;;;;;5081354;28;20482;-83
2022/07/19 14:11:21;;;;;;;3.88;2.13;;;;;;;;;;5065931;28;20038;-84
2022/07/19 14:13:47;;;;;;;6.32;1.98;;;;;;;;;;5074196;28;20021;-84
2022/07/19 14:16:12;;;;;;;5.43;2.25;;;;;;;;;;5065682;28;20047;-83
2022/07/19 14:18:38;;;;;;;5.97;1.90;;;;;;;;;;5071587;28;20091;-84
2022/07/19 14:21:04;;;;;;;5.65;2.20;;;;;;;;;;5072823;28;20519;-84
2022/07/19 14:23:29;;;;;;;4.75;2.30;;;;;;;;;;5074278;28;20099;-84
2022/07/19 14:25:55;;;;;;;7.88;2.30;;;;;;;;;;5063735;28;20046;-83
2022/07/19 14:28:21;;;;;;;5.70;1.95;;;;;;;;;;5073681;28;20495;-84
2022/07/19 14:30:46;;;;;;;3.13;2.20;;;;;;;;;;5080019;28;20033;-83
2022/07/19 14:33:12;;;;;;;6.80;2.35;;;;;;;;;;5075402;28;20036;-83
2022/07/19 14:35:37;;;;;;;2.75;2.10;;;;;;;;;;5063212;28;20032;-84
2022/07/19 14:38:03;;;;;;;4.53;2.83;;;;;;;;;;5069402;28;20036;-85
2022/07/19 14:40:29;;;;;;;2.88;2.00;;;;;;;;;;5072703;28;20522;-83
2022/07/19 14:42:54;;;;;;;4.68;2.10;;;;;;;;;;5068613;28;20025;-84
2022/07/19 14:45:20;;;;;;;3.97;2.00;;;;;;;;;;5068669;28;20389;-82
2022/07/19 14:47:45;;;;;;;8.63;2.28;;;;;;;;;;5075445;28;20080;-83